Main page
METAR-TAF:

METAR-TAF

Airports :

Al-Ahsa International Airport

Al-Hasa, Saudi Arabia

latitude: 25-18N, longitude: 049-29E, elevation: 179 m

Current weather observation

The report was made 1 hour and 11 minutes ago, at 02:00 UTC
Wind 5 kt from the West
Temperature 29°C
Humidity 23%
Pressure 1003 hPa
Visibility: 3000 m
widespread dust

METAR: OEAH 240200Z 28005KT 3000 DU NSC 29/06 Q1003 NOSIG

Time: 06:11 (03:11 UTC)

Forecast

The report was made 4 hours and 11 minutes ago, at 23:00 UTC
Forecast valid from 24 at 00 UTC to 25 at 06 UTC
Wind 10 kt from the West
Visibility: 6000 m
Clear sky
Becoming
from 24 at 06 UTC to 24 at 08 UTC
Wind 10 kt from the North/Northwest with gusts up to 20 kt
Temporary
from 24 at 06 UTC to 24 at 16 UTC
Visibility: 3000 m
widespread dust, Blowing dust
Probability 40% :
Temporary
from 24 at 09 UTC to 24 at 14 UTC
Visibility: 1500 m
Blowing sand

TAF: OEAH 232300Z 2400/2506 27010KT 6000 SKC BECMG 2406/2408 33010G20KT TEMPO 2406/2416 3000 DU BLDU PROB40 TEMPO 2409/2414 1500 BLSA

Weather observations and forecasts of more than 4000 airports (METAR and TAF reports).

The available stations are represented by yellow and red dots on the map.

Hover mouse over dot to see the name of the station.

Then click to see weather observations and forecasts.

To change the map : click on the green buttons with a black cross to zoom in, on the green button with a dash to zoom out, or on the green arrows for adjacent maps.


METAR-TAF: